createdAt,value
2019-05-25T00:01:53.421Z,100144.24
2019-05-25T00:04:43.066Z,100143.70
2019-05-25T00:07:32.931Z,100145.61
2019-05-25T00:10:23.489Z,100146.44
2019-05-25T00:13:13.724Z,100149.98
2019-05-25T00:16:03.586Z,100148.91
2019-05-25T00:18:53.824Z,100144.24
2019-05-25T00:21:43.883Z,100143.45
2019-05-25T00:24:34.105Z,100139.61
2019-05-25T00:27:24.136Z,100148.09
2019-05-25T00:30:14.673Z,100145.06
2019-05-25T00:33:04.860Z,100145.36
2019-05-25T00:35:54.935Z,100154.38
2019-05-25T00:38:45.169Z,100153.55
2019-05-25T00:41:35.726Z,100159.01
2019-05-25T00:44:25.570Z,100155.17
2019-05-25T00:47:15.525Z,100159.84
2019-05-25T00:50:06.285Z,100161.75
2019-05-25T00:52:55.994Z,100161.75
2019-05-25T00:55:45.736Z,100161.46
2019-05-25T00:58:35.620Z,100157.36
2019-05-25T01:01:24.948Z,100157.91
2019-05-25T01:04:14.643Z,100154.91
2019-05-25T01:07:04.874Z,100156.81
2019-05-25T01:09:54.841Z,100155.16
2019-05-25T01:12:44.792Z,100157.34
2019-05-25T01:15:35.803Z,100154.62
2019-05-25T01:18:25.866Z,100151.63
2019-05-25T01:21:15.705Z,100152.99
2019-05-25T01:24:05.822Z,100150.27
2019-05-25T01:26:56.018Z,100153.54
2019-05-25T01:29:45.849Z,100155.16
2019-05-25T01:32:36.154Z,100160.38
2019-05-25T01:35:25.785Z,100161.46
2019-05-25T01:38:15.815Z,100163.13
2019-05-25T01:41:06.059Z,100161.22
2019-05-25T01:43:55.871Z,100167.52
2019-05-25T01:46:45.946Z,100162.59
2019-05-25T01:49:35.497Z,100162.34
2019-05-25T01:52:25.685Z,100163.43
2019-05-25T01:55:16.073Z,100160.16
2019-05-25T01:58:06.546Z,100159.63
2019-05-25T02:00:55.893Z,100157.72
2019-05-25T02:03:46.014Z,100156.90
2019-05-25T02:06:35.615Z,100168.11
2019-05-25T02:09:25.497Z,100162.94
2019-05-25T02:12:15.404Z,100158.02
2019-05-25T02:15:06.607Z,100162.94
2019-05-25T02:17:56.431Z,100165.13
2019-05-25T02:20:46.332Z,100163.77
2019-05-25T02:23:36.549Z,100171.12
2019-05-25T02:26:26.535Z,100174.69
2019-05-25T02:29:16.635Z,100176.33
2019-05-25T02:32:07.153Z,100183.98
2019-05-25T02:34:57.207Z,100190.23
2019-05-25T02:37:47.829Z,100189.16
2019-05-25T02:40:37.692Z,100194.61
2019-05-25T02:43:27.993Z,100188.33
2019-05-25T02:46:18.314Z,100187.53
2019-05-25T02:49:08.282Z,100192.70
2019-05-25T02:51:58.147Z,100193.25
2019-05-25T02:54:48.122Z,100194.61
2019-05-25T02:57:37.960Z,100192.17
2019-05-25T03:00:35.666Z,100198.99
2019-05-25T03:03:26.802Z,100195.44
2019-05-25T03:06:20.447Z,100197.63
2019-05-25T03:09:10.666Z,100200.34
2019-05-25T03:12:01.670Z,100194.06
2019-05-25T03:14:51.482Z,100204.44
2019-05-25T03:17:41.158Z,100207.16
2019-05-25T03:20:31.764Z,100211.25
2019-05-25T03:23:21.658Z,100218.35
2019-05-25T03:26:11.182Z,100226.82
2019-05-25T03:29:00.882Z,100219.71
2019-05-25T03:31:50.931Z,100222.73
2019-05-25T03:34:41.232Z,100220.83
2019-05-25T03:37:31.036Z,100233.64
2019-05-25T03:40:21.181Z,100236.08
2019-05-25T03:43:11.095Z,100235.27
2019-05-25T03:46:01.449Z,100238.83
2019-05-25T03:48:51.514Z,100239.11
2019-05-25T03:51:42.706Z,100239.66
2019-05-25T03:54:32.908Z,100234.20
2019-05-25T03:57:23.208Z,100246.20
2019-05-25T04:00:15.032Z,100236.93
2019-05-25T04:03:06.005Z,100235.00
2019-05-25T04:05:56.193Z,100235.57
2019-05-25T04:08:46.237Z,100233.92
2019-05-25T04:11:35.987Z,100239.92
2019-05-25T04:14:25.522Z,100245.39
2019-05-25T04:17:15.337Z,100241.00
2019-05-25T04:20:06.098Z,100248.40
2019-05-25T04:22:56.000Z,100256.30
2019-05-25T04:25:46.370Z,100251.95
2019-05-25T04:28:37.386Z,100261.74
2019-05-25T04:31:27.469Z,100260.94
2019-05-25T04:34:17.188Z,100265.02
2019-05-25T04:37:07.302Z,100264.46
2019-05-25T04:39:57.444Z,100259.23
2019-05-25T04:42:47.558Z,100270.14
2019-05-25T04:45:37.621Z,100275.30
2019-05-25T04:48:27.275Z,100280.75
2019-05-25T04:51:17.076Z,100284.51
2019-05-25T04:54:07.241Z,100292.93
2019-05-25T04:56:57.211Z,100299.75
2019-05-25T04:59:47.073Z,100305.71
2019-05-25T05:02:36.909Z,100314.72
2019-05-25T05:05:26.892Z,100312.53
2019-05-25T05:08:16.814Z,100306.55
2019-05-25T05:11:07.220Z,100315.84
2019-05-25T05:13:57.378Z,100315.06
2019-05-25T05:16:47.464Z,100322.16
2019-05-25T05:19:37.279Z,100320.85
2019-05-25T05:22:27.222Z,100323.59
2019-05-25T05:25:16.637Z,100322.84
2019-05-25T05:28:06.210Z,100327.23
2019-05-25T05:30:56.229Z,100326.16
2019-05-25T05:33:45.949Z,100330.28
2019-05-25T05:36:37.794Z,100323.47
2019-05-25T05:39:29.188Z,100330.30
2019-05-25T05:42:24.260Z,100330.84
2019-05-25T05:45:15.655Z,100331.92
2019-05-25T05:48:06.100Z,100337.38
2019-05-25T05:50:59.594Z,100332.74
2019-05-25T05:53:55.933Z,100331.91
2019-05-25T05:56:45.662Z,100335.75
2019-05-25T05:59:35.813Z,100340.38
2019-05-25T06:02:25.632Z,100339.84
2019-05-25T06:05:15.536Z,100346.39
2019-05-25T06:08:05.646Z,100349.67
2019-05-25T06:10:55.508Z,100354.05
2019-05-25T06:13:45.535Z,100347.25
2019-05-25T06:16:35.270Z,100349.17
2019-05-25T06:19:25.182Z,100353.25
2019-05-25T06:22:14.979Z,100353.53
2019-05-25T06:25:05.670Z,100350.30
2019-05-25T06:27:55.670Z,100352.45
2019-05-25T06:30:45.783Z,100348.08
2019-05-25T06:33:36.012Z,100353.00
2019-05-25T06:36:25.876Z,100356.23
2019-05-25T06:39:15.969Z,100359.50
2019-05-25T06:42:05.979Z,100360.32
2019-05-25T06:44:55.825Z,100356.45
2019-05-25T06:47:45.641Z,100365.17
2019-05-25T06:50:35.994Z,100361.27
2019-05-25T06:53:25.724Z,100368.36
2019-05-25T06:56:15.775Z,100362.56
2019-05-25T06:59:06.075Z,100358.94
2019-05-25T07:01:56.035Z,100358.16
2019-05-25T07:04:46.109Z,100361.38
2019-05-25T07:07:36.052Z,100361.60
2019-05-25T07:10:26.219Z,100360.43
2019-05-25T07:13:16.108Z,100369.69
2019-05-25T07:16:06.279Z,100369.90
2019-05-25T07:18:56.498Z,100367.72
2019-05-25T07:21:46.669Z,100374.27
2019-05-25T07:24:38.187Z,100380.27
2019-05-25T07:27:27.879Z,100376.13
2019-05-25T07:30:18.380Z,100386.52
2019-05-25T07:33:08.160Z,100388.66
2019-05-25T07:35:58.996Z,100385.55
2019-05-25T07:38:49.198Z,100395.88
2019-05-25T07:41:39.394Z,100398.87
2019-05-25T07:44:29.114Z,100395.04
2019-05-25T07:47:19.303Z,100394.27
2019-05-25T07:50:10.548Z,100400.03
2019-05-25T07:53:00.280Z,100401.45
2019-05-25T07:55:50.259Z,100408.22
2019-05-25T07:58:40.330Z,100410.05
2019-05-25T08:01:29.970Z,100408.39
2019-05-25T08:04:19.840Z,100409.84
2019-05-25T08:07:09.608Z,100412.09
2019-05-25T08:09:59.364Z,100411.56
2019-05-25T08:12:50.140Z,100421.44
2019-05-25T08:15:40.293Z,100419.50
2019-05-25T08:18:30.018Z,100421.84
2019-05-25T08:21:19.671Z,100427.22
2019-05-25T08:24:09.823Z,100425.80
2019-05-25T08:26:59.882Z,100424.09
2019-05-25T08:29:49.744Z,100421.55
2019-05-25T08:32:39.540Z,100415.16
2019-05-25T08:35:29.453Z,100415.44
2019-05-25T08:38:19.456Z,100423.08
2019-05-25T08:41:09.327Z,100423.58
2019-05-25T08:43:59.113Z,100412.22
2019-05-25T08:46:49.017Z,100418.75
2019-05-25T08:49:39.292Z,100420.92
2019-05-25T08:52:29.058Z,100415.32
2019-05-25T08:55:29.686Z,100410.45
2019-05-25T08:58:19.497Z,100416.11
2019-05-25T09:01:09.324Z,100415.44
2019-05-25T09:03:59.071Z,100425.14
2019-05-25T09:06:49.114Z,100419.64
2019-05-25T09:09:39.168Z,100427.48
2019-05-25T09:12:29.290Z,100425.36
2019-05-25T09:15:20.341Z,100422.68
2019-05-25T09:18:10.363Z,100419.82
2019-05-25T09:21:00.291Z,100415.59
2019-05-25T09:23:50.050Z,100424.39
2019-05-25T09:26:39.981Z,100415.86
2019-05-25T09:29:29.475Z,100417.75
2019-05-25T09:32:19.639Z,100427.34
2019-05-25T09:35:11.015Z,100423.14
2019-05-25T09:38:00.605Z,100427.41
2019-05-25T09:40:51.204Z,100427.14
2019-05-25T09:43:41.328Z,100432.05
2019-05-25T09:46:31.434Z,100428.95
2019-05-25T09:49:20.800Z,100426.83
2019-05-25T09:52:10.819Z,100420.77
2019-05-25T09:55:01.239Z,100421.84
2019-05-25T09:57:51.393Z,100416.83
2019-05-25T10:00:41.134Z,100412.49
2019-05-25T10:03:30.948Z,100419.41
2019-05-25T10:06:21.303Z,100411.34
2019-05-25T10:09:11.297Z,100417.31
2019-05-25T10:12:01.376Z,100411.80
2019-05-25T10:14:51.640Z,100411.61
2019-05-25T10:17:41.630Z,100411.95
2019-05-25T10:20:31.946Z,100414.70
2019-05-25T10:23:22.164Z,100404.62
2019-05-25T10:26:11.799Z,100409.10
2019-05-25T10:29:01.673Z,100409.18
2019-05-25T10:31:51.469Z,100415.47
2019-05-25T10:34:41.461Z,100407.30
2019-05-25T10:37:31.596Z,100408.02
2019-05-25T10:40:21.707Z,100402.13
2019-05-25T10:43:11.889Z,100400.41
2019-05-25T10:46:01.751Z,100391.86
2019-05-25T10:48:51.689Z,100382.23
2019-05-25T10:51:41.646Z,100384.28
2019-05-25T10:54:31.569Z,100390.27
2019-05-25T10:57:22.017Z,100380.41
2019-05-25T11:00:14.525Z,100376.50
2019-05-25T11:03:04.316Z,100372.80
2019-05-25T11:05:54.358Z,100379.87
2019-05-25T11:08:45.737Z,100379.87
2019-05-25T11:11:36.061Z,100380.43
2019-05-25T11:14:25.990Z,100382.83
2019-05-25T11:17:15.921Z,100387.05
2019-05-25T11:20:06.573Z,100375.06
2019-05-25T11:22:56.612Z,100374.18
2019-05-25T11:25:46.635Z,100375.78
2019-05-25T11:28:36.734Z,100374.54
2019-05-25T11:31:26.238Z,100372.09
2019-05-25T11:34:16.056Z,100364.91
2019-05-25T11:37:06.063Z,100366.09
2019-05-25T11:39:56.254Z,100369.13
2019-05-25T11:42:45.920Z,100364.02
2019-05-25T11:45:36.155Z,100359.80
2019-05-25T11:48:25.898Z,100362.32
2019-05-25T11:51:15.838Z,100364.30
2019-05-25T11:54:05.966Z,100363.24
2019-05-25T11:56:56.046Z,100369.11
2019-05-25T11:59:45.907Z,100369.51
2019-05-25T12:02:36.014Z,100370.30
2019-05-25T12:05:25.952Z,100371.89
2019-05-25T12:08:15.801Z,100381.38
2019-05-25T12:11:05.599Z,100371.92
2019-05-25T12:13:55.795Z,100368.95
2019-05-25T12:16:45.639Z,100376.86
2019-05-25T12:19:35.569Z,100367.38
2019-05-25T12:22:25.845Z,100361.45
2019-05-25T12:25:17.976Z,100353.05
2019-05-25T12:28:08.133Z,100357.85
2019-05-25T12:31:01.674Z,100358.05
2019-05-25T12:33:51.896Z,100357.17
2019-05-25T12:36:42.075Z,100355.67
2019-05-25T12:39:32.045Z,100354.44
2019-05-25T12:42:21.891Z,100354.88
2019-05-25T12:45:13.054Z,100344.56
2019-05-25T12:48:03.152Z,100344.69
2019-05-25T12:50:53.550Z,100347.52
2019-05-25T12:53:43.428Z,100339.61
2019-05-25T12:56:32.992Z,100341.00
2019-05-25T12:59:22.876Z,100338.34
2019-05-25T13:02:12.807Z,100336.58
2019-05-25T13:05:02.931Z,100339.13
2019-05-25T13:07:53.276Z,100333.67
2019-05-25T13:10:43.273Z,100336.45
2019-05-25T13:13:33.519Z,100333.18
2019-05-25T13:16:23.713Z,100334.47
2019-05-25T13:19:13.983Z,100342.79
2019-05-25T13:22:04.278Z,100347.61
2019-05-25T13:24:54.740Z,100336.67
2019-05-25T13:27:44.418Z,100335.25
2019-05-25T13:30:34.234Z,100331.80
2019-05-25T13:33:24.253Z,100333.53
2019-05-25T13:36:14.522Z,100336.48
2019-05-25T13:39:06.145Z,100341.07
2019-05-25T13:41:56.758Z,100334.23
2019-05-25T13:44:46.273Z,100332.59
2019-05-25T13:47:36.414Z,100323.77
2019-05-25T13:50:26.510Z,100325.58
2019-05-25T13:53:16.482Z,100324.95
2019-05-25T13:56:06.708Z,100321.77
2019-05-25T13:58:56.561Z,100320.72
2019-05-25T14:01:46.475Z,100315.84
2019-05-25T14:04:36.765Z,100314.11
2019-05-25T14:07:26.763Z,100310.74
2019-05-25T14:10:16.938Z,100310.30
2019-05-25T14:13:06.368Z,100310.49
2019-05-25T14:16:06.655Z,100305.89
2019-05-25T14:18:47.791Z,100306.28
2019-05-25T14:21:37.792Z,100297.33
2019-05-25T14:24:28.070Z,100299.00
2019-05-25T14:27:19.482Z,100288.83
2019-05-25T14:30:11.291Z,100296.62
2019-05-25T14:33:01.982Z,100333.30
2019-05-25T14:35:52.107Z,100298.36
2019-05-25T14:38:41.671Z,100290.08
2019-05-25T14:41:30.842Z,100290.30
2019-05-25T14:44:20.815Z,100285.17
2019-05-25T14:47:10.593Z,100286.69
2019-05-25T14:50:00.794Z,100286.78
2019-05-25T14:52:51.090Z,100298.66
2019-05-25T14:55:41.283Z,100291.78
2019-05-25T14:58:31.689Z,100289.73
2019-05-25T15:01:21.211Z,100286.59
2019-05-25T15:04:10.992Z,100291.05
2019-05-25T15:07:01.414Z,100294.98
2019-05-25T15:09:51.619Z,100286.00
2019-05-25T15:12:41.697Z,100023.34
2019-05-25T15:15:31.594Z,100291.14
2019-05-25T15:18:21.841Z,100290.09
2019-05-25T15:21:12.203Z,100291.98
2019-05-25T15:24:02.675Z,100293.88
2019-05-25T15:26:54.116Z,100301.44
2019-05-25T15:29:43.972Z,100297.03
2019-05-25T15:32:34.057Z,100297.37
2019-05-25T15:35:24.171Z,100300.30
2019-05-25T15:38:13.965Z,100299.67
2019-05-25T15:41:04.387Z,100304.21
2019-05-25T15:43:54.149Z,100297.45
2019-05-25T15:46:43.982Z,100300.80
2019-05-25T15:49:34.655Z,100305.98
2019-05-25T15:52:24.895Z,100310.05
2019-05-25T15:55:15.403Z,100307.50
2019-05-25T15:58:05.601Z,100305.06
2019-05-25T16:00:55.516Z,100304.07
2019-05-25T16:03:45.549Z,100304.28
2019-05-25T16:06:35.441Z,100310.97
2019-05-25T16:09:25.244Z,100310.61
2019-05-25T16:12:15.311Z,100302.92
2019-05-25T16:15:06.101Z,100309.14
2019-05-25T16:17:56.090Z,100305.36
2019-05-25T16:20:45.886Z,100304.14
2019-05-25T16:23:36.071Z,100303.34
2019-05-25T16:26:26.464Z,100306.36
2019-05-25T16:29:16.631Z,100299.59
2019-05-25T16:32:07.912Z,100309.95
2019-05-25T16:34:57.745Z,100304.06
2019-05-25T16:37:47.741Z,100302.36
2019-05-25T16:40:37.686Z,100300.37
2019-05-25T16:43:27.498Z,100307.14
2019-05-25T16:46:17.763Z,100310.06
2019-05-25T16:49:09.563Z,100318.27
2019-05-25T16:51:59.946Z,100313.55
2019-05-25T16:54:49.323Z,100309.81
2019-05-25T16:57:39.144Z,100309.95
2019-05-25T17:00:31.219Z,100305.92
2019-05-25T17:03:28.083Z,100313.19
2019-05-25T17:06:12.509Z,100316.28
2019-05-25T17:09:02.878Z,100315.29
2019-05-25T17:11:53.420Z,100316.77
2019-05-25T17:14:43.669Z,100318.83
2019-05-25T17:17:33.342Z,100326.86
2019-05-25T17:20:24.503Z,100321.77
2019-05-25T17:23:14.570Z,100324.74
2019-05-25T17:26:05.775Z,100336.71
2019-05-25T17:28:55.849Z,100332.81
2019-05-25T17:31:46.100Z,100335.72
2019-05-25T17:34:36.146Z,100339.58
2019-05-25T17:37:27.112Z,100337.78
2019-05-25T17:40:17.386Z,100348.64
2019-05-25T17:43:07.327Z,100342.70
2019-05-25T17:45:57.668Z,100352.45
2019-05-25T17:48:47.605Z,100351.16
2019-05-25T17:51:37.120Z,100349.92
2019-05-25T17:54:27.049Z,100352.20
2019-05-25T17:57:16.892Z,100358.63
2019-05-25T18:00:08.123Z,100362.66
2019-05-25T18:02:58.317Z,100359.43
2019-05-25T18:05:48.772Z,100357.12
2019-05-25T18:08:39.106Z,100361.56
2019-05-25T18:11:28.821Z,100362.45
2019-05-25T18:14:18.387Z,100364.20
2019-05-25T18:17:07.678Z,100360.44
2019-05-25T18:19:58.784Z,100367.40
2019-05-25T18:22:48.960Z,100372.52
2019-05-25T18:25:38.965Z,100371.27
2019-05-25T18:28:32.089Z,100374.94
2019-05-25T18:31:21.686Z,100382.48
2019-05-25T18:34:22.107Z,100376.24
2019-05-25T18:37:05.693Z,100379.33
2019-05-25T18:39:56.960Z,100375.60
2019-05-25T18:42:47.353Z,100378.71
2019-05-25T18:45:37.001Z,100384.35
2019-05-25T18:48:26.535Z,100384.94
2019-05-25T18:51:16.321Z,100387.23
2019-05-25T18:54:06.333Z,100381.61
2019-05-25T18:56:56.294Z,100390.13
2019-05-25T18:59:46.563Z,100393.75
2019-05-25T19:02:36.467Z,100391.36
2019-05-25T19:05:26.973Z,100399.08
2019-05-25T19:08:17.301Z,100407.88
2019-05-25T19:11:07.537Z,100411.53
2019-05-25T19:13:57.601Z,100411.84
2019-05-25T19:16:47.291Z,100413.23
2019-05-25T19:19:37.106Z,100420.91
2019-05-25T19:22:26.447Z,100423.95
2019-05-25T19:25:16.289Z,100432.70
2019-05-25T19:28:06.537Z,100438.72
2019-05-25T19:30:56.479Z,100441.76
2019-05-25T19:33:46.038Z,100443.39
2019-05-25T19:36:36.015Z,100443.14
2019-05-25T19:39:26.232Z,100450.81
2019-05-25T19:42:15.311Z,100454.38
2019-05-25T19:45:05.602Z,100456.86
2019-05-25T19:47:55.525Z,100465.89
2019-05-25T19:50:44.985Z,100468.34
2019-05-25T19:53:35.072Z,100479.27
2019-05-25T19:56:25.329Z,100523.28
2019-05-25T19:59:14.787Z,100470.53
2019-05-25T20:02:05.080Z,100478.44
2019-05-25T20:04:55.000Z,100485.83
2019-05-25T20:07:45.157Z,100485.77
2019-05-25T20:10:35.053Z,100497.50
2019-05-25T20:13:24.610Z,100503.52
2019-05-25T20:16:14.718Z,100502.95
2019-05-25T20:19:05.520Z,100510.61
2019-05-25T20:21:55.267Z,100506.48
2019-05-25T20:24:45.417Z,100502.36
2019-05-25T20:27:35.373Z,100510.02
2019-05-25T20:30:25.015Z,100502.88
2019-05-25T20:33:27.157Z,100499.33
2019-05-25T20:36:07.432Z,100503.69
2019-05-25T20:38:57.892Z,100509.13
2019-05-25T20:41:47.835Z,100508.26
2019-05-25T20:44:38.119Z,100503.88
2019-05-25T20:47:27.969Z,100517.48
2019-05-25T20:50:18.362Z,100515.55
2019-05-25T20:53:08.311Z,100515.25
2019-05-25T20:55:58.002Z,100518.22
2019-05-25T20:58:47.984Z,100521.15
2019-05-25T21:01:38.037Z,100525.76
2019-05-25T21:04:27.828Z,100516.45
2019-05-25T21:07:18.033Z,100515.85
2019-05-25T21:10:08.399Z,100516.88
2019-05-25T21:12:58.654Z,100523.93
2019-05-25T21:15:48.713Z,100529.38
2019-05-25T21:18:39.853Z,100525.22
2019-05-25T21:21:29.927Z,100524.87
2019-05-25T21:24:20.182Z,100530.55
2019-05-25T21:27:10.220Z,100534.61
2019-05-25T21:30:00.386Z,100538.09
2019-05-25T21:32:50.415Z,100541.57
2019-05-25T21:35:40.595Z,100542.61
2019-05-25T21:38:30.803Z,100548.56
2019-05-25T21:41:21.306Z,100549.10
2019-05-25T21:44:11.085Z,100550.44
2019-05-25T21:47:01.416Z,100552.06
2019-05-25T21:49:51.215Z,100550.14
2019-05-25T21:52:41.121Z,100549.88
2019-05-25T21:55:30.971Z,100550.38
2019-05-25T21:58:21.035Z,100545.43
2019-05-25T22:01:12.194Z,100554.91
2019-05-25T22:04:03.513Z,100552.69
2019-05-25T22:06:54.480Z,100546.38
2019-05-25T22:09:44.515Z,100545.55
2019-05-25T22:12:34.566Z,100546.34
2019-05-25T22:15:24.335Z,100544.98
2019-05-25T22:18:14.039Z,100538.97
2019-05-25T22:21:04.211Z,100533.80
2019-05-25T22:23:53.735Z,100535.16
2019-05-25T22:26:43.210Z,100528.02
2019-05-25T22:29:33.533Z,100529.65
2019-05-25T22:32:23.761Z,100530.15
2019-05-25T22:35:13.641Z,100534.47
2019-05-25T22:38:03.350Z,100530.35
2019-05-25T22:40:52.891Z,100534.41
2019-05-25T22:43:42.213Z,100527.03
2019-05-25T22:46:32.420Z,100527.56
2019-05-25T22:49:22.847Z,100525.41
2019-05-25T22:52:12.810Z,100534.14
2019-05-25T22:55:02.709Z,100538.22
2019-05-25T22:57:52.718Z,100530.88
2019-05-25T23:00:42.572Z,100531.68
2019-05-25T23:03:32.765Z,100531.98
2019-05-25T23:06:24.366Z,100524.61
2019-05-25T23:09:13.906Z,100527.03
2019-05-25T23:12:03.927Z,100527.27
2019-05-25T23:14:54.186Z,100523.98
2019-05-25T23:17:43.475Z,100517.67
2019-05-25T23:20:36.493Z,100513.55
2019-05-25T23:23:25.644Z,100502.63
2019-05-25T23:26:15.459Z,100499.91
2019-05-25T23:29:05.994Z,100494.10
2019-05-25T23:31:55.467Z,100485.84
2019-05-25T23:34:45.158Z,100486.60
2019-05-25T23:37:34.994Z,100490.38
2019-05-25T23:40:24.875Z,100492.50
2019-05-25T23:43:16.243Z,100492.96
2019-05-25T23:46:06.124Z,100487.48
2019-05-25T23:48:56.330Z,100480.31
2019-05-25T23:51:46.200Z,100487.34
2019-05-25T23:54:36.390Z,100490.52
2019-05-25T23:57:26.505Z,100484.66
